CST,Max TemperatureF,Mean TemperatureF,Min TemperatureF,Max Dew PointF,MeanDew PointF,Min DewpointF,Max Humidity, Mean Humidity, Min Humidity, Max Sea Level PressureIn, Mean Sea Level PressureIn, Min Sea Level PressureIn, Max VisibilityMiles, Mean VisibilityMiles, Min VisibilityMiles, Max Wind SpeedMPH, Mean Wind SpeedMPH, Max Gust SpeedMPH,PrecipitationIn, CloudCover, Events, WindDirDegrees
2012-11-1,59,42,26,32,26,19,80,59,34,29.98,29.93,29.86,10,10,10,15,7,21,0.00,2,,301
2012-11-2,46,35,24,30,26,19,86,67,46,30.17,30.10,29.99,10,10,1,12,8,,0.00,0,,42
2012-11-3,46,38,30,34,29,25,86,68,53,30.25,30.21,30.15,10,10,10,12,7,,0.00,5,,75
2012-11-4,48,39,30,34,30,27,87,70,53,30.28,30.24,30.19,10,10,6,7,2,,0.00,5,,60
2012-11-5,48,39,30,34,28,23,87,67,43,30.22,30.18,30.12,10,9,4,13,7,16,0.00,3,,103
2012-11-6,42,36,30,39,33,25,93,84,75,30.13,29.96,29.87,10,6,1,12,7,16,0.16,8,,203
2012-11-7,42,38,33,36,34,30,93,81,66,30.19,30.10,29.91,10,9,4,13,6,20,0.00,8,,8
2012-11-8,51,43,35,36,34,30,87,71,50,30.21,30.13,30.05,10,10,5,15,7,20,0.00,2,,168
2012-11-9,57,45,33,45,40,30,93,75,58,30.07,30.00,29.94,10,8,3,14,9,,0.00,4,,110
2012-11-10,69,60,51,54,49,45,88,66,52,29.94,29.85,29.77,10,10,7,28,13,36,0.00,1,,158
2012-11-11,62,47,30,54,42,25,88,73,55,30.04,29.85,29.66,10,10,3,26,19,38,0.64,6,,228
2012-11-12,33,27,21,23,19,16,86,68,56,30.39,30.20,30.04,10,10,10,25,18,30,0.06,5,,276
2012-11-13,42,30,19,21,19,14,93,67,39,30.52,30.46,30.39,10,10,10,9,5,,0.00,0,,209
2012-11-14,51,40,30,28,26,23,80,61,38,30.48,30.42,30.36,10,10,10,15,9,20,0.00,2,,160
2012-11-15,53,40,28,30,27,25,86,64,35,30.38,30.34,30.30,10,10,8,13,7,17,0.00,0,,173
2012-11-16,51,38,26,34,29,21,93,73,47,30.49,30.44,30.38,10,6,0,8,3,,0.00,0,,59
2012-11-17,55,40,26,32,28,23,86,69,38,30.52,30.47,30.42,10,5,1,12,8,,0.00,0,,143
2012-11-18,57,42,28,34,30,25,93,64,38,30.42,30.35,30.29,10,7,2,13,9,,0.00,0,,140
2012-11-19,55,47,39,43,38,32,81,71,58,30.29,30.18,30.10,10,6,1,17,8,,0.00,5,,158
2012-11-20,59,48,37,46,40,36,93,79,59,30.21,30.15,30.09,10,4,0,9,3,,0.00,3,,325
2012-11-21,60,48,35,46,40,34,93,83,55,30.24,30.16,30.05,10,4,0,14,7,,0.00,2,,192
2012-11-22,64,52,39,46,39,28,81,66,48,30.05,29.91,29.78,10,9,4,30,15,39,0.00,1,,214
2012-11-23,39,27,15,28,16,10,86,61,44,30.31,30.19,30.00,10,10,10,37,21,44,0.00,3,,297
2012-11-24,32,22,12,19,15,7,86,70,55,30.31,30.18,29.93,10,10,10,15,8,,0.00,3,,243
2012-11-25,42,33,24,23,21,16,80,61,42,30.13,29.96,29.86,10,10,10,14,8,18,0.00,1,,294
2012-11-26,32,22,12,21,16,7,86,69,51,30.43,30.30,30.14,10,10,9,16,7,16,0.00,2,,335
2012-11-27,30,18,6,16,11,3,86,65,44,30.45,30.36,30.27,10,10,10,12,5,,0.00,2,,241
2012-11-28,44,30,17,23,18,10,80,59,37,30.42,30.33,30.25,10,10,8,12,7,,0.00,1,,230
2012-11-29,51,38,24,34,27,19,80,64,44,30.25,30.13,30.04,10,10,7,10,7,,0.00,2,,154
2012-11-30,51,40,28,34,30,25,93,74,50,30.15,30.09,30.03,10,7,2,15,8,,0.00,0,,69